createdAt,value
2022-12-11T00:00:59.171Z,10.53
2022-12-11T00:03:29.385Z,9.70
2022-12-11T00:05:57.593Z,10.43
2022-12-11T00:08:25.460Z,10.27
2022-12-11T00:10:53.429Z,11.03
2022-12-11T00:13:21.200Z,11.07
2022-12-11T00:15:49.908Z,11.50
2022-12-11T00:18:17.965Z,10.50
2022-12-11T00:20:48.498Z,10.50
2022-12-11T00:23:16.353Z,10.53
2022-12-11T00:25:45.327Z,10.43
2022-12-11T00:28:15.396Z,10.50
2022-12-11T00:30:45.480Z,11.63
2022-12-11T00:33:14.755Z,11.00
2022-12-11T00:35:44.270Z,10.63
2022-12-11T00:38:17.313Z,11.57
2022-12-11T00:40:45.842Z,10.13
2022-12-11T00:43:13.890Z,10.70
2022-12-11T00:45:44.469Z,10.30
2022-12-11T00:48:14.283Z,11.87
2022-12-11T00:50:43.467Z,11.37
2022-12-11T00:53:11.592Z,10.50
2022-12-11T00:55:42.647Z,11.17
2022-12-11T00:58:12.718Z,10.97
2022-12-11T01:00:42.491Z,10.67
2022-12-11T01:03:11.079Z,10.37
2022-12-11T01:05:38.963Z,10.50
2022-12-11T01:08:08.314Z,10.87
2022-12-11T01:10:36.571Z,10.90
2022-12-11T01:13:09.160Z,11.27
2022-12-11T01:15:42.195Z,10.93
2022-12-11T01:18:10.570Z,10.77
2022-12-11T01:20:38.887Z,10.03
2022-12-11T01:23:08.252Z,11.10
2022-12-11T01:25:38.175Z,11.27
2022-12-11T01:28:08.034Z,11.10
2022-12-11T01:30:36.812Z,11.53
2022-12-11T01:33:05.625Z,11.03
2022-12-11T01:35:33.587Z,11.03
2022-12-11T01:38:01.577Z,10.60
2022-12-11T01:40:30.126Z,10.60
2022-12-11T01:42:58.365Z,11.67
2022-12-11T01:45:32.868Z,12.10
2022-12-11T01:48:09.427Z,12.17
2022-12-11T01:50:42.053Z,10.87
2022-12-11T01:53:13.679Z,10.77
2022-12-11T01:55:42.911Z,11.50
2022-12-11T01:58:12.221Z,11.70
2022-12-11T02:00:42.495Z,11.83
2022-12-11T02:03:10.616Z,12.60
2022-12-11T02:05:38.949Z,12.83
2022-12-11T02:08:08.477Z,13.43
2022-12-11T02:10:55.844Z,13.17
2022-12-11T02:13:31.846Z,14.00
2022-12-11T02:16:08.025Z,11.67
2022-12-11T02:18:40.841Z,13.23
2022-12-11T02:21:14.810Z,13.30
2022-12-11T02:23:57.486Z,13.00
2022-12-11T02:26:48.677Z,13.93
2022-12-11T02:29:22.711Z,14.40
2022-12-11T02:31:58.914Z,12.60
2022-12-11T02:34:34.177Z,12.80
2022-12-11T02:37:07.011Z,13.13
2022-12-11T02:39:38.041Z,14.37
2022-12-11T02:42:07.816Z,14.53
2022-12-11T02:44:39.585Z,17.87
2022-12-11T02:47:13.070Z,14.67
2022-12-11T02:49:43.609Z,15.00
2022-12-11T02:52:15.640Z,15.00
2022-12-11T02:54:45.855Z,14.40
2022-12-11T02:57:17.755Z,15.10
2022-12-11T02:59:48.245Z,15.27
2022-12-11T03:02:18.857Z,14.80
2022-12-11T03:04:47.715Z,15.13
2022-12-11T03:07:19.130Z,15.77
2022-12-11T03:09:49.149Z,16.07
2022-12-11T03:12:20.977Z,14.77
2022-12-11T03:14:51.145Z,14.57
2022-12-11T03:17:22.777Z,15.33
2022-12-11T03:19:57.104Z,16.00
2022-12-11T03:22:30.106Z,16.50
2022-12-11T03:25:04.303Z,15.93
2022-12-11T03:27:36.738Z,15.30
2022-12-11T03:30:10.869Z,20.00
2022-12-11T03:32:45.539Z,20.43
2022-12-11T03:35:19.458Z,20.30
2022-12-11T03:37:49.317Z,19.07
2022-12-11T03:40:20.634Z,21.10
2022-12-11T03:42:52.033Z,20.13
2022-12-11T03:45:24.533Z,19.93
2022-12-11T03:47:54.798Z,20.97
2022-12-11T03:50:26.457Z,20.03
2022-12-11T03:52:55.531Z,18.37
2022-12-11T03:55:24.892Z,19.80
2022-12-11T03:57:52.892Z,20.30
2022-12-11T04:00:23.565Z,18.60
2022-12-11T04:03:09.684Z,17.97
2022-12-11T04:05:41.388Z,18.53
2022-12-11T04:08:09.134Z,18.73
2022-12-11T04:10:40.198Z,19.00
2022-12-11T04:13:08.722Z,18.43
2022-12-11T04:15:37.914Z,18.67
2022-12-11T04:18:23.648Z,20.03
2022-12-11T04:21:11.828Z,18.83
2022-12-11T04:23:57.072Z,17.93
2022-12-11T04:26:24.865Z,19.10
2022-12-11T04:28:52.848Z,19.53
2022-12-11T04:31:23.588Z,18.70
2022-12-11T04:33:51.869Z,18.37
2022-12-11T04:36:19.774Z,18.23
2022-12-11T04:38:47.650Z,19.83
2022-12-11T04:41:16.880Z,19.13
2022-12-11T04:43:45.517Z,18.80
2022-12-11T04:46:16.417Z,18.63
2022-12-11T04:48:46.645Z,20.10
2022-12-11T04:51:15.388Z,21.17
2022-12-11T04:53:44.995Z,21.27
2022-12-11T04:56:15.221Z,20.90
2022-12-11T04:58:43.993Z,20.53
2022-12-11T05:01:13.924Z,19.77
2022-12-11T05:03:43.627Z,20.57
2022-12-11T05:06:13.655Z,20.87
2022-12-11T05:08:43.969Z,18.23
2022-12-11T05:11:14.105Z,21.40
2022-12-11T05:13:43.069Z,20.03
2022-12-11T05:16:13.323Z,22.17
2022-12-11T05:18:41.471Z,20.50
2022-12-11T05:21:12.260Z,21.83
2022-12-11T05:23:42.491Z,25.20
2022-12-11T05:26:13.907Z,25.17
2022-12-11T05:28:42.083Z,21.50
2022-12-11T05:31:13.833Z,20.20
2022-12-11T05:33:41.917Z,20.17
2022-12-11T05:36:10.271Z,17.30
2022-12-11T05:38:37.994Z,21.23
2022-12-11T05:41:08.273Z,19.43
2022-12-11T05:43:38.214Z,18.70
2022-12-11T05:46:08.180Z,18.00
2022-12-11T05:48:38.174Z,18.03
2022-12-11T05:51:07.424Z,18.57
2022-12-11T05:53:36.224Z,18.27
2022-12-11T05:56:05.196Z,16.07
2022-12-11T05:58:37.309Z,15.83
2022-12-11T06:01:09.196Z,15.27
2022-12-11T06:03:37.093Z,13.20
2022-12-11T06:06:05.517Z,14.57
2022-12-11T06:08:35.413Z,13.93
2022-12-11T06:11:05.317Z,13.93
2022-12-11T06:13:36.919Z,14.37
2022-12-11T06:16:07.199Z,13.70
2022-12-11T06:18:37.448Z,13.93
2022-12-11T06:21:13.034Z,14.63
2022-12-11T06:23:41.405Z,14.07
2022-12-11T06:26:09.818Z,14.87
2022-12-11T06:28:39.890Z,14.60
2022-12-11T06:31:09.076Z,14.27
2022-12-11T06:33:37.440Z,14.73
2022-12-11T06:36:07.172Z,14.03
2022-12-11T06:38:36.540Z,14.80
2022-12-11T06:41:05.921Z,13.43
2022-12-11T06:43:34.670Z,13.17
2022-12-11T06:46:06.466Z,13.50
2022-12-11T06:48:34.591Z,13.17
2022-12-11T06:51:07.770Z,11.40
2022-12-11T06:53:36.348Z,12.67
2022-12-11T06:56:05.793Z,14.10
2022-12-11T06:58:35.593Z,13.40
2022-12-11T07:01:05.835Z,14.00
2022-12-11T07:03:33.814Z,13.00
2022-12-11T07:06:02.690Z,12.77
2022-12-11T07:08:32.157Z,13.63
2022-12-11T07:11:04.893Z,14.07
2022-12-11T07:13:33.700Z,14.23
2022-12-11T07:16:03.731Z,14.17
2022-12-11T07:18:33.768Z,14.90
2022-12-11T07:21:01.760Z,14.73
2022-12-11T07:23:30.157Z,17.33
2022-12-11T07:25:58.997Z,18.03
2022-12-11T07:28:27.246Z,16.93
2022-12-11T07:30:55.191Z,15.13
2022-12-11T07:33:23.038Z,14.97
2022-12-11T07:35:52.309Z,14.97
2022-12-11T07:38:20.001Z,15.73
2022-12-11T07:40:47.756Z,16.17
2022-12-11T07:43:15.629Z,18.40
2022-12-11T07:45:43.533Z,21.50
2022-12-11T07:48:12.928Z,20.40
2022-12-11T07:50:41.005Z,19.20
2022-12-11T07:53:11.030Z,17.93
2022-12-11T07:55:39.034Z,16.73
2022-12-11T07:58:06.830Z,17.03
2022-12-11T08:00:34.951Z,14.87
2022-12-11T08:03:02.874Z,14.47
2022-12-11T08:05:30.850Z,15.57
2022-12-11T08:07:59.066Z,15.27
2022-12-11T08:10:28.529Z,13.43
2022-12-11T08:12:56.574Z,13.63
2022-12-11T08:15:25.290Z,13.43
2022-12-11T08:17:53.208Z,13.90
2022-12-11T08:20:21.062Z,13.73
2022-12-11T08:22:48.773Z,12.93
2022-12-11T08:25:16.612Z,15.20
2022-12-11T08:27:46.098Z,14.03
2022-12-11T08:30:14.741Z,13.67
2022-12-11T08:32:43.072Z,18.90
2022-12-11T08:35:11.715Z,15.17
2022-12-11T08:37:40.789Z,15.10
2022-12-11T08:40:10.929Z,14.67
2022-12-11T08:42:39.020Z,13.13
2022-12-11T08:45:10.765Z,12.20
2022-12-11T08:47:39.023Z,11.57
2022-12-11T08:50:08.054Z,12.10
2022-12-11T08:52:36.563Z,12.80
2022-12-11T08:55:04.853Z,11.03
2022-12-11T08:57:32.808Z,10.33
2022-12-11T09:00:00.861Z,10.67
2022-12-11T09:02:30.230Z,12.10
2022-12-11T09:04:57.972Z,13.03
2022-12-11T09:07:26.554Z,13.47
2022-12-11T09:09:55.937Z,12.83
2022-12-11T09:12:24.433Z,11.93
2022-12-11T09:14:52.295Z,10.80
2022-12-11T09:17:20.490Z,11.73
2022-12-11T09:19:50.074Z,11.90
2022-12-11T09:22:18.299Z,10.83
2022-12-11T09:24:46.402Z,10.97
2022-12-11T09:27:15.290Z,11.30
2022-12-11T09:29:43.687Z,10.80
2022-12-11T09:32:11.699Z,9.73
2022-12-11T09:34:39.473Z,8.50
2022-12-11T09:37:08.909Z,8.37
2022-12-11T09:39:37.694Z,8.07
2022-12-11T09:42:12.971Z,8.80
2022-12-11T09:44:43.438Z,13.30
2022-12-11T09:47:23.415Z,10.63
2022-12-11T09:49:55.238Z,9.73
2022-12-11T09:52:33.739Z,9.50
2022-12-11T09:55:05.781Z,11.40
2022-12-11T09:57:43.472Z,10.57
2022-12-11T10:00:21.134Z,9.87
2022-12-11T10:03:07.988Z,8.57
2022-12-11T10:05:40.719Z,9.40
2022-12-11T10:08:18.135Z,8.63
2022-12-11T10:10:52.810Z,7.80
2022-12-11T10:13:29.255Z,8.23
2022-12-11T10:16:01.467Z,8.90
2022-12-11T10:18:31.535Z,8.40
2022-12-11T10:21:03.517Z,8.63
2022-12-11T10:23:37.202Z,8.93
2022-12-11T10:26:09.263Z,9.13
2022-12-11T10:28:37.431Z,10.10
2022-12-11T10:31:14.971Z,9.13
2022-12-11T10:33:55.495Z,9.77
2022-12-11T10:36:28.579Z,10.07
2022-12-11T10:38:58.508Z,10.03
2022-12-11T10:41:38.306Z,9.37
2022-12-11T10:44:18.582Z,12.17
2022-12-11T10:46:47.155Z,12.73
2022-12-11T10:49:26.523Z,11.27
2022-12-11T10:51:57.031Z,8.63
2022-12-11T10:54:38.256Z,9.23
2022-12-11T10:57:08.180Z,8.37
2022-12-11T10:59:40.335Z,8.97
2022-12-11T11:02:20.715Z,9.80
2022-12-11T11:04:48.766Z,10.03
2022-12-11T11:07:22.237Z,9.53
2022-12-11T11:09:54.394Z,10.97
2022-12-11T11:12:26.416Z,10.27
2022-12-11T11:15:02.365Z,10.73
2022-12-11T11:17:35.093Z,11.13
2022-12-11T11:20:14.424Z,12.13
2022-12-11T11:22:45.989Z,12.53
2022-12-11T11:25:21.123Z,11.50
2022-12-11T11:27:55.649Z,12.27
2022-12-11T11:30:25.832Z,11.47
2022-12-11T11:32:57.029Z,11.37
2022-12-11T11:35:27.386Z,12.10
2022-12-11T11:38:01.261Z,12.47
2022-12-11T11:40:33.039Z,11.87
2022-12-11T11:43:10.159Z,12.60
2022-12-11T11:45:45.309Z,11.97
2022-12-11T11:48:26.209Z,11.17
2022-12-11T11:50:54.655Z,11.93
2022-12-11T11:53:28.751Z,11.77
2022-12-11T11:56:07.728Z,12.37
2022-12-11T11:58:43.682Z,12.33
2022-12-11T12:01:17.493Z,12.93
2022-12-11T12:03:46.599Z,11.73
2022-12-11T12:06:22.934Z,12.30
2022-12-11T12:09:00.860Z,12.27
2022-12-11T12:11:40.293Z,12.57
2022-12-11T12:14:43.705Z,11.97
2022-12-11T12:17:12.790Z,12.17
2022-12-11T12:19:55.938Z,12.43
2022-12-11T12:22:37.221Z,11.80
2022-12-11T12:25:19.066Z,12.57
2022-12-11T12:27:58.139Z,11.20
2022-12-11T12:30:26.129Z,11.20
2022-12-11T12:33:09.386Z,11.20
2022-12-11T12:35:41.190Z,11.13
2022-12-11T12:38:17.493Z,11.67
2022-12-11T12:40:57.713Z,11.37
2022-12-11T12:43:46.292Z,11.40
2022-12-11T12:46:24.866Z,11.30
2022-12-11T12:48:55.206Z,11.87
2022-12-11T12:51:23.847Z,12.47
2022-12-11T12:53:56.678Z,10.60
2022-12-11T12:56:26.454Z,9.97
2022-12-11T12:58:55.799Z,11.23
2022-12-11T13:01:25.554Z,11.00
2022-12-11T13:03:57.470Z,11.60
2022-12-11T13:06:37.567Z,11.10
2022-12-11T13:09:16.038Z,10.83
2022-12-11T13:11:44.865Z,10.73
2022-12-11T13:14:31.633Z,10.33
2022-12-11T13:17:11.075Z,11.70
2022-12-11T13:19:42.512Z,11.47
2022-12-11T13:22:24.762Z,11.37
2022-12-11T13:25:01.792Z,10.70
2022-12-11T13:27:40.103Z,10.70
2022-12-11T13:30:23.516Z,11.10
2022-12-11T13:33:02.107Z,11.47
2022-12-11T13:35:30.811Z,10.53
2022-12-11T13:38:06.897Z,12.07
2022-12-11T13:40:40.179Z,10.30
2022-12-11T13:43:16.667Z,10.53
2022-12-11T13:45:51.511Z,10.37
2022-12-11T13:48:24.101Z,11.27
2022-12-11T13:50:53.624Z,10.27
2022-12-11T13:53:22.537Z,10.43
2022-12-11T13:55:58.679Z,10.53
2022-12-11T13:58:27.367Z,10.07
2022-12-11T14:01:06.068Z,9.97
2022-12-11T14:03:35.177Z,10.90
2022-12-11T14:06:04.287Z,10.83
2022-12-11T14:08:36.803Z,12.20
2022-12-11T14:11:05.907Z,11.60
2022-12-11T14:13:37.090Z,10.77
2022-12-11T14:16:08.303Z,10.63
2022-12-11T14:18:38.445Z,10.47
2022-12-11T14:21:07.916Z,10.03
2022-12-11T14:23:37.393Z,14.23
2022-12-11T14:26:17.730Z,13.03
2022-12-11T14:28:45.725Z,13.10
2022-12-11T14:31:19.489Z,12.13
2022-12-11T14:33:54.748Z,12.40
2022-12-11T14:36:24.042Z,10.93
2022-12-11T14:38:56.526Z,10.80
2022-12-11T14:41:28.763Z,11.20
2022-12-11T14:44:00.380Z,9.80
2022-12-11T14:46:39.029Z,10.43
2022-12-11T14:49:17.811Z,11.20
2022-12-11T14:51:46.458Z,11.70
2022-12-11T14:54:29.590Z,12.97
2022-12-11T14:56:58.005Z,12.60
2022-12-11T14:59:31.847Z,12.43
2022-12-11T15:02:05.576Z,11.27
2022-12-11T15:04:35.096Z,14.63
2022-12-11T15:07:03.000Z,15.13
2022-12-11T15:09:38.236Z,16.10
2022-12-11T15:12:12.525Z,16.33
2022-12-11T15:14:46.684Z,15.63
2022-12-11T15:17:16.668Z,15.83
2022-12-11T15:19:51.211Z,18.97
2022-12-11T15:22:21.066Z,23.43
2022-12-11T15:24:52.130Z,21.83
2022-12-11T15:27:27.109Z,18.73
2022-12-11T15:29:55.212Z,16.77
2022-12-11T15:32:26.305Z,13.63
2022-12-11T15:34:56.179Z,15.87
2022-12-11T15:37:27.012Z,14.33
2022-12-11T15:39:56.259Z,14.70
2022-12-11T15:42:31.573Z,15.13
2022-12-11T15:45:00.877Z,14.87
2022-12-11T15:47:31.692Z,13.70
2022-12-11T15:50:02.086Z,13.37
2022-12-11T15:52:30.016Z,13.30
2022-12-11T15:54:57.883Z,12.73
2022-12-11T15:57:26.944Z,12.53
2022-12-11T15:59:56.079Z,12.43
2022-12-11T16:02:24.679Z,12.93
2022-12-11T16:04:54.323Z,12.73
2022-12-11T16:07:24.765Z,13.20
2022-12-11T16:09:53.746Z,12.63
2022-12-11T16:12:21.724Z,13.47
2022-12-11T16:14:49.617Z,12.93
2022-12-11T16:17:17.546Z,11.90
2022-12-11T16:19:46.085Z,12.80
2022-12-11T16:22:16.713Z,12.30
2022-12-11T16:24:44.731Z,12.77
2022-12-11T16:27:16.319Z,11.47
2022-12-11T16:29:48.019Z,12.97
2022-12-11T16:32:16.330Z,12.47
2022-12-11T16:34:44.197Z,13.27
2022-12-11T16:37:12.109Z,13.23
2022-12-11T16:39:42.870Z,12.93
2022-12-11T16:42:10.586Z,13.53
2022-12-11T16:44:43.720Z,13.53
2022-12-11T16:47:12.179Z,14.10
2022-12-11T16:49:40.646Z,13.87
2022-12-11T16:52:08.881Z,14.73
2022-12-11T16:54:37.138Z,14.80
2022-12-11T16:57:06.806Z,14.90
2022-12-11T16:59:37.462Z,14.37
2022-12-11T17:02:06.294Z,15.07
2022-12-11T17:04:34.278Z,14.30
2022-12-11T17:07:02.259Z,13.53
2022-12-11T17:09:30.051Z,13.93
2022-12-11T17:11:58.007Z,13.50
2022-12-11T17:14:27.425Z,14.50
2022-12-11T17:16:55.341Z,14.63
2022-12-11T17:19:23.690Z,14.50
2022-12-11T17:21:52.009Z,13.40
2022-12-11T17:24:21.329Z,13.17
2022-12-11T17:26:49.427Z,13.13
2022-12-11T17:29:17.533Z,13.83
2022-12-11T17:31:48.768Z,14.17
2022-12-11T17:34:17.207Z,13.57
2022-12-11T17:36:46.545Z,14.30
2022-12-11T17:39:14.597Z,13.67
2022-12-11T17:41:43.145Z,15.17
2022-12-11T17:44:11.339Z,15.47
2022-12-11T17:46:40.192Z,15.60
2022-12-11T17:49:09.684Z,15.23
2022-12-11T17:51:37.385Z,15.83
2022-12-11T17:54:06.935Z,15.70
2022-12-11T17:56:36.391Z,15.40
2022-12-11T17:59:04.878Z,15.10
2022-12-11T18:01:33.191Z,15.20
2022-12-11T18:04:01.947Z,14.93
2022-12-11T18:06:32.022Z,17.57
2022-12-11T18:08:59.744Z,16.20
2022-12-11T18:11:27.974Z,15.40
2022-12-11T18:13:56.265Z,14.23
2022-12-11T18:16:26.876Z,13.83
2022-12-11T18:18:56.571Z,13.63
2022-12-11T18:21:26.899Z,14.03
2022-12-11T18:23:57.102Z,13.23
2022-12-11T18:26:25.804Z,13.97
2022-12-11T18:28:55.331Z,13.13
2022-12-11T18:31:23.788Z,12.80
2022-12-11T18:33:52.242Z,14.13
2022-12-11T18:36:21.497Z,15.20
2022-12-11T18:38:50.082Z,17.17
2022-12-11T18:41:20.629Z,20.23
2022-12-11T18:43:49.318Z,19.83
2022-12-11T18:46:20.860Z,17.27
2022-12-11T18:48:51.874Z,16.10
2022-12-11T18:51:25.216Z,16.90
2022-12-11T18:53:54.855Z,15.17
2022-12-11T18:56:25.892Z,14.67
2022-12-11T18:58:55.044Z,15.40
2022-12-11T19:01:26.246Z,14.27
2022-12-11T19:04:00.449Z,14.63
2022-12-11T19:06:32.339Z,14.57
2022-12-11T19:09:01.753Z,16.57
2022-12-11T19:11:35.987Z,14.77
2022-12-11T19:14:06.136Z,14.50
2022-12-11T19:16:38.155Z,15.33
2022-12-11T19:19:10.850Z,14.73
2022-12-11T19:21:39.751Z,14.23
2022-12-11T19:24:10.314Z,14.77
2022-12-11T19:26:41.312Z,15.90
2022-12-11T19:29:11.314Z,26.60
2022-12-11T19:31:40.081Z,18.17
2022-12-11T19:34:08.663Z,16.27
2022-12-11T19:36:38.347Z,15.33
2022-12-11T19:39:13.354Z,15.57
2022-12-11T19:41:44.475Z,15.17
2022-12-11T19:44:13.212Z,15.03
2022-12-11T19:46:41.783Z,14.40
2022-12-11T19:49:13.533Z,13.43
2022-12-11T19:51:44.602Z,13.73
2022-12-11T19:54:15.035Z,14.87
2022-12-11T19:56:45.731Z,15.20
2022-12-11T19:59:15.717Z,14.30
2022-12-11T20:01:44.680Z,13.70
2022-12-11T20:04:16.383Z,12.50
2022-12-11T20:06:46.849Z,13.13
2022-12-11T20:09:16.052Z,13.17
2022-12-11T20:11:47.436Z,12.80
2022-12-11T20:14:21.161Z,13.60
2022-12-11T20:19:38.441Z,12.70
2022-12-11T20:22:06.987Z,13.77
2022-12-11T20:24:34.743Z,12.07
2022-12-11T20:27:04.687Z,12.77
2022-12-11T20:29:32.592Z,12.23
2022-12-11T20:32:01.280Z,13.73
2022-12-11T20:34:29.852Z,15.63
2022-12-11T20:36:57.897Z,14.13
2022-12-11T20:39:26.942Z,13.27
2022-12-11T20:41:54.923Z,13.03
2022-12-11T20:44:25.867Z,13.23
2022-12-11T20:46:53.712Z,13.70
2022-12-11T20:49:21.906Z,13.13
2022-12-11T20:51:50.789Z,12.87
2022-12-11T20:54:18.703Z,13.93
2022-12-11T20:56:46.661Z,13.63
2022-12-11T20:59:15.247Z,12.87
2022-12-11T21:01:45.222Z,13.47
2022-12-11T21:04:13.072Z,13.67
2022-12-11T21:06:42.168Z,14.20
2022-12-11T21:09:12.994Z,14.40
2022-12-11T21:11:41.297Z,13.77
2022-12-11T21:14:09.599Z,14.20
2022-12-11T21:16:39.479Z,14.00
2022-12-11T21:19:13.670Z,14.07
2022-12-11T21:21:45.438Z,13.57
2022-12-11T21:24:17.262Z,12.93
2022-12-11T21:26:45.109Z,13.27
2022-12-11T21:29:13.174Z,12.93
2022-12-11T21:31:41.019Z,13.13
2022-12-11T21:34:10.605Z,12.97
2022-12-11T21:36:38.627Z,13.17
2022-12-11T21:39:06.898Z,14.83
2022-12-11T21:41:34.942Z,13.50
2022-12-11T21:45:25.514Z,13.77
2022-12-11T21:46:50.928Z,13.93
2022-12-11T21:49:20.802Z,13.73
2022-12-11T21:51:48.860Z,14.47
2022-12-11T21:54:18.089Z,13.67
2022-12-11T21:56:47.734Z,14.17
2022-12-11T21:59:18.095Z,14.60
2022-12-11T22:01:47.192Z,15.77
2022-12-11T22:04:17.781Z,19.40
2022-12-11T22:06:48.168Z,18.37
2022-12-11T22:09:17.749Z,16.37
2022-12-11T22:11:47.085Z,15.43
2022-12-11T22:14:16.191Z,14.07
2022-12-11T22:16:44.401Z,13.20
2022-12-11T22:19:12.345Z,14.57
2022-12-11T22:21:40.856Z,13.73
2022-12-11T22:24:10.530Z,13.70
2022-12-11T22:26:38.717Z,13.03
2022-12-11T22:29:06.614Z,15.53
2022-12-11T22:31:34.983Z,13.20
2022-12-11T22:34:04.107Z,13.17
2022-12-11T22:36:32.094Z,13.57
2022-12-11T22:39:01.833Z,14.30
2022-12-11T22:41:32.923Z,14.40
2022-12-11T22:44:02.523Z,13.83
2022-12-11T22:46:31.777Z,13.50
2022-12-11T22:49:00.294Z,13.77
2022-12-11T22:51:29.131Z,12.30
2022-12-11T22:53:57.260Z,12.50
2022-12-11T22:56:26.094Z,12.33
2022-12-11T22:58:56.303Z,11.17
2022-12-11T23:01:25.634Z,12.23
2022-12-11T23:03:54.038Z,11.53
2022-12-11T23:06:24.861Z,12.53
2022-12-11T23:08:55.097Z,11.93
2022-12-11T23:11:25.899Z,12.10
2022-12-11T23:13:57.123Z,11.67
2022-12-11T23:16:27.104Z,12.57
2022-12-11T23:18:56.115Z,12.50
2022-12-11T23:21:25.043Z,12.27
2022-12-11T23:23:53.893Z,11.90
2022-12-11T23:26:23.006Z,11.67
2022-12-11T23:28:52.748Z,12.17
2022-12-11T23:31:22.457Z,12.10
2022-12-11T23:33:50.271Z,11.83
2022-12-11T23:36:19.089Z,12.50
2022-12-11T23:38:54.084Z,12.33
2022-12-11T23:41:23.560Z,12.17
2022-12-11T23:43:51.444Z,12.40
2022-12-11T23:46:22.626Z,12.53
2022-12-11T23:48:51.071Z,11.70
2022-12-11T23:51:20.706Z,11.20
2022-12-11T23:53:48.670Z,11.43
2022-12-11T23:56:19.586Z,11.93
2022-12-11T23:58:48.061Z,12.20
